Time;durP1;ratioP1;P1;durP2;ratioP2;P2;SDS_P1;SDS_P2;PMS_P1;PMS_P2;Temp;Humidity;BMP_temperature;BMP_pressure;BME280_temperature;BME280_humidity;BME280_pressure;Samples;Min_cycle;Max_cycle;Signal;HPM_P1;HPM_P2
2021/09/20 00:01:54;;;;;;;0.95;0.85;;;18.40;70.70;;;;;;4973268;28;20046;-60
2021/09/20 00:04:20;;;;;;;0.80;0.80;;;18.40;70.50;;;;;;4974022;28;20090;-61
2021/09/20 00:06:45;;;;;;;2.83;0.80;;;18.30;68.90;;;;;;4973186;28;20027;-60
2021/09/20 00:09:11;;;;;;;0.70;0.70;;;18.30;69.70;;;;;;4973837;28;20019;-60
2021/09/20 00:11:37;;;;;;;0.88;0.88;;;18.20;68.80;;;;;;4973083;28;20039;-60
2021/09/20 00:14:03;;;;;;;1.92;0.65;;;18.30;70.20;;;;;;4956397;28;20030;-60
2021/09/20 00:16:28;;;;;;;0.73;0.55;;;18.20;68.80;;;;;;4955966;28;20045;-60
2021/09/20 00:18:55;;;;;;;1.30;0.50;;;18.20;70.60;;;;;;4959007;28;20055;-60
2021/09/20 00:21:21;;;;;;;1.38;0.68;;;18.20;67.30;;;;;;4953588;28;20043;-61
2021/09/20 00:23:47;;;;;;;1.10;0.85;;;18.10;67.80;;;;;;4955393;28;20369;-60
2021/09/20 00:26:12;;;;;;;0.77;0.50;;;18.00;70.20;;;;;;4957296;28;20121;-60
2021/09/20 00:28:38;;;;;;;1.02;0.50;;;18.00;70.30;;;;;;4957978;29;20034;-61
2021/09/20 00:31:04;;;;;;;0.68;0.60;;;18.00;70.10;;;;;;4957182;28;20035;-61
2021/09/20 00:33:30;;;;;;;0.43;0.43;;;18.00;71.50;;;;;;4957668;29;20046;-60
2021/09/20 00:35:56;;;;;;;1.20;0.30;;;18.10;71.20;;;;;;4957136;28;20031;-60
2021/09/20 00:38:22;;;;;;;1.77;0.50;;;18.00;70.10;;;;;;4957892;28;20028;-60
2021/09/20 00:40:48;;;;;;;0.65;0.40;;;18.00;70.40;;;;;;4971402;28;20037;-60
2021/09/20 00:43:14;;;;;;;1.05;0.30;;;18.00;69.70;;;;;;4956953;28;20034;-60
2021/09/20 00:45:39;;;;;;;0.30;0.30;;;18.00;70.30;;;;;;4939069;28;20066;-59
2021/09/20 00:48:05;;;;;;;0.30;0.30;;;18.00;70.00;;;;;;4957561;29;20039;-60
2021/09/20 00:50:31;;;;;;;0.70;0.45;;;18.00;69.50;;;;;;4972042;28;20035;-60
2021/09/20 00:52:56;;;;;;;0.80;0.30;;;18.00;70.50;;;;;;4956460;28;20040;-60
2021/09/20 00:55:22;;;;;;;0.68;0.50;;;18.00;67.80;;;;;;4957753;28;20037;-61
2021/09/20 00:57:49;;;;;;;1.10;0.50;;;18.00;70.30;;;;;;4950584;28;20027;-61
2021/09/20 01:00:15;;;;;;;1.52;0.40;;;17.90;69.60;;;;;;4938624;29;20038;-60
2021/09/20 01:02:41;;;;;;;0.22;0.20;;;17.80;67.80;;;;;;4954383;28;20043;-60
2021/09/20 01:05:08;;;;;;;0.30;0.30;;;17.80;65.80;;;;;;4957283;29;20035;-60
2021/09/20 01:07:34;;;;;;;0.38;0.38;;;17.80;71.40;;;;;;4956616;28;20380;-60
2021/09/20 01:10:00;;;;;;;0.30;0.30;;;17.90;67.20;;;;;;4951806;29;20428;-60
2021/09/20 01:12:27;;;;;;;0.38;0.38;;;17.90;74.70;;;;;;4951699;28;20494;-61
2021/09/20 01:14:56;;;;;;;0.52;0.30;;;17.80;70.80;;;;;;4957446;28;20114;-60
2021/09/20 01:17:22;;;;;;;2.00;0.38;;;17.80;69.40;;;;;;4958455;28;20102;-60
2021/09/20 01:19:47;;;;;;;2.28;0.43;;;17.80;73.80;;;;;;4975294;28;20162;-60
2021/09/20 01:22:15;;;;;;;1.95;0.40;;;17.70;74.00;;;;;;4976367;28;20063;-60
2021/09/20 01:24:48;;;;;;;1.15;0.30;;;17.80;74.50;;;;;;4975774;28;20452;-60
2021/09/20 01:27:18;;;;;;;0.10;0.10;;;17.70;73.70;;;;;;4974597;28;20388;-60
2021/09/20 01:29:44;;;;;;;1.05;0.22;;;17.80;75.30;;;;;;4976368;28;20070;-60
2021/09/20 01:32:10;;;;;;;1.00;0.35;;;17.80;70.10;;;;;;4974949;28;20030;-60
2021/09/20 01:34:36;;;;;;;0.63;0.30;;;17.80;75.40;;;;;;4975567;28;20100;-60
2021/09/20 01:37:02;;;;;;;1.00;0.20;;;17.80;74.10;;;;;;4975368;28;20488;-61
2021/09/20 01:39:30;;;;;;;0.57;0.20;;;17.90;75.90;;;;;;4975276;28;20102;-61
2021/09/20 01:41:56;;;;;;;1.17;0.15;;;17.80;74.80;;;;;;4976232;28;20030;-60
2021/09/20 01:44:23;;;;;;;0.63;0.10;;;17.90;75.80;;;;;;4974224;28;20077;-60
2021/09/20 01:46:51;;;;;;;0.90;0.35;;;18.00;76.60;;;;;;4975831;28;20101;-60
2021/09/20 01:49:17;;;;;;;1.15;0.20;;;18.00;76.50;;;;;;4975529;28;20097;-60
2021/09/20 01:51:43;;;;;;;0.28;0.10;;;18.00;75.90;;;;;;4976051;28;20049;-61
2021/09/20 01:54:09;;;;;;;0.35;0.22;;;17.90;75.90;;;;;;4974424;28;20030;-60
2021/09/20 01:56:36;;;;;;;1.20;0.15;;;17.90;76.10;;;;;;4974073;28;20023;-60
2021/09/20 01:59:03;;;;;;;1.40;0.30;;;17.90;71.70;;;;;;4974348;28;20393;-61
2021/09/20 02:01:29;;;;;;;0.45;0.22;;;17.70;75.00;;;;;;4975259;28;20431;-60
2021/09/20 02:03:55;;;;;;;0.40;0.10;;;17.80;75.00;;;;;;4974100;28;20488;-60
2021/09/20 02:06:22;;;;;;;0.55;0.20;;;17.70;74.70;;;;;;4975542;28;20047;-60
2021/09/20 02:08:49;;;;;;;1.63;0.40;;;17.70;75.20;;;;;;4974826;28;20058;-60
2021/09/20 02:11:16;;;;;;;0.35;0.30;;;17.80;76.30;;;;;;4975228;28;20385;-60
2021/09/20 02:13:42;;;;;;;0.95;0.30;;;17.90;75.90;;;;;;4974020;28;20027;-60
2021/09/20 02:16:08;;;;;;;0.88;0.28;;;17.90;76.50;;;;;;4975629;28;20085;-60
2021/09/20 02:18:36;;;;;;;0.20;0.10;;;17.80;75.90;;;;;;4973586;28;20031;-60
2021/09/20 02:21:03;;;;;;;0.38;0.25;;;17.90;75.50;;;;;;4974862;28;20093;-60
2021/09/20 02:23:30;;;;;;;0.38;0.25;;;17.80;71.50;;;;;;4974566;28;20077;-60
2021/09/20 02:25:55;;;;;;;1.27;0.30;;;17.70;76.50;;;;;;4974124;28;20023;-61
2021/09/20 02:28:21;;;;;;;0.57;0.10;;;17.70;75.50;;;;;;4974424;28;20037;-60
2021/09/20 02:30:47;;;;;;;0.85;0.25;;;17.70;75.70;;;;;;4975013;28;20031;-61
2021/09/20 02:33:13;;;;;;;0.35;0.10;;;17.70;76.10;;;;;;4957361;28;20085;-60
2021/09/20 02:35:38;;;;;;;1.42;0.35;;;17.80;76.50;;;;;;4975027;28;20051;-60
2021/09/20 02:38:04;;;;;;;3.53;0.52;;;17.70;76.10;;;;;;4974547;28;20035;-60
2021/09/20 02:40:30;;;;;;;0.28;0.28;;;17.80;73.70;;;;;;4974820;28;20019;-61
2021/09/20 02:42:55;;;;;;;0.55;0.20;;;17.60;76.70;;;;;;4974443;28;20035;-60
2021/09/20 02:45:21;;;;;;;0.43;0.20;;;17.60;71.10;;;;;;4974819;28;20445;-60
2021/09/20 02:47:48;;;;;;;0.35;0.10;;;17.60;77.00;;;;;;4974109;28;20176;-61
2021/09/20 02:50:14;;;;;;;1.20;0.30;;;17.60;76.30;;;;;;4957359;28;20018;-60
2021/09/20 02:52:40;;;;;;;0.90;0.40;;;17.60;75.70;;;;;;4973832;28;20106;-60
2021/09/20 02:55:07;;;;;;;1.38;0.30;;;17.70;75.70;;;;;;4974454;28;20042;-60
2021/09/20 02:57:34;;;;;;;0.75;0.20;;;17.60;76.50;;;;;;4973594;28;20118;-60
2021/09/20 03:00:00;;;;;;;0.30;0.28;;;17.60;75.00;;;;;;4955361;29;20027;-60
2021/09/20 03:02:26;;;;;;;2.35;0.35;;;17.50;76.40;;;;;;4955118;29;20082;-60
2021/09/20 03:04:52;;;;;;;1.38;0.20;;;17.40;71.30;;;;;;4973731;28;20049;-60
2021/09/20 03:07:18;;;;;;;1.40;0.22;;;17.40;71.50;;;;;;4975118;28;20030;-60
2021/09/20 03:09:43;;;;;;;0.20;0.20;;;17.40;70.10;;;;;;4973683;28;20027;-61
2021/09/20 03:12:09;;;;;;;1.58;0.30;;;17.50;70.70;;;;;;4974196;28;20503;-61
2021/09/20 03:14:35;;;;;;;0.65;0.30;;;17.50;71.60;;;;;;4973287;28;20027;-60
2021/09/20 03:17:01;;;;;;;1.23;0.32;;;17.40;71.10;;;;;;4974223;28;20434;-60
2021/09/20 03:19:27;;;;;;;0.63;0.20;;;17.40;71.60;;;;;;4937423;29;20043;-60
2021/09/20 03:21:53;;;;;;;4.07;0.32;;;17.40;70.90;;;;;;4954729;29;20382;-61
2021/09/20 03:24:18;;;;;;;2.25;0.35;;;17.30;70.70;;;;;;4954097;28;20027;-60
2021/09/20 03:26:44;;;;;;;2.83;0.30;;;17.30;70.30;;;;;;4953619;28;20038;-60
2021/09/20 03:29:10;;;;;;;0.20;0.20;;;17.40;72.30;;;;;;4954161;28;20421;-60
2021/09/20 03:31:35;;;;;;;1.55;0.13;;;17.30;72.90;;;;;;4954678;29;20578;-60
2021/09/20 03:34:01;;;;;;;0.10;0.10;;;17.30;70.80;;;;;;4954138;28;20043;-60
2021/09/20 03:36:27;;;;;;;0.75;0.43;;;17.30;72.20;;;;;;4954901;29;20038;-61
2021/09/20 03:38:53;;;;;;;0.80;0.20;;;17.30;73.40;;;;;;4954149;28;20039;-60
2021/09/20 03:41:20;;;;;;;0.70;0.30;;;17.30;73.30;;;;;;4954852;29;20015;-60
2021/09/20 03:43:45;;;;;;;0.40;0.10;;;17.30;73.50;;;;;;4953926;28;20027;-60
2021/09/20 03:46:11;;;;;;;0.45;0.25;;;17.20;73.10;;;;;;4954467;29;20434;-60
2021/09/20 03:48:37;;;;;;;1.20;0.20;;;17.30;73.50;;;;;;4954053;28;20225;-60
2021/09/20 03:51:03;;;;;;;0.80;0.10;;;17.20;74.00;;;;;;4951778;29;20032;-60
2021/09/20 03:53:29;;;;;;;0.57;0.40;;;17.30;74.40;;;;;;4953900;28;20043;-60
2021/09/20 03:55:55;;;;;;;1.70;0.40;;;17.20;73.50;;;;;;4954361;29;20019;-60
2021/09/20 03:58:21;;;;;;;1.33;0.30;;;17.10;75.60;;;;;;4953872;28;20036;-60
2021/09/20 04:00:47;;;;;;;0.32;0.20;;;17.10;76.60;;;;;;4958263;29;20030;-60
2021/09/20 04:03:13;;;;;;;1.20;0.40;;;17.10;76.90;;;;;;4958092;28;20031;-60
2021/09/20 04:05:39;;;;;;;1.55;0.40;;;17.00;76.50;;;;;;4958172;29;20032;-60
2021/09/20 04:08:04;;;;;;;0.43;0.32;;;17.00;78.50;;;;;;4957499;28;20027;-60
2021/09/20 04:10:30;;;;;;;1.98;0.40;;;17.10;78.50;;;;;;4958093;29;20027;-60
2021/09/20 04:12:56;;;;;;;1.67;0.40;;;17.00;78.10;;;;;;4957555;28;20046;-60
2021/09/20 04:15:21;;;;;;;2.80;0.50;;;17.00;77.00;;;;;;4958252;29;20030;-60
2021/09/20 04:17:47;;;;;;;2.58;0.60;;;17.00;80.30;;;;;;4963140;28;20397;-60
2021/09/20 04:20:14;;;;;;;2.50;0.70;;;16.90;80.90;;;;;;4975930;28;20074;-60
2021/09/20 04:22:40;;;;;;;0.90;0.55;;;16.80;81.40;;;;;;4977524;28;20038;-60
2021/09/20 04:25:07;;;;;;;1.73;0.52;;;16.90;87.70;;;;;;4976442;28;20059;-60
2021/09/20 04:27:33;;;;;;;1.05;0.60;;;16.80;90.40;;;;;;4978422;28;20406;-60
2021/09/20 04:29:59;;;;;;;3.60;0.60;;;16.80;87.90;;;;;;4976653;28;20062;-60
2021/09/20 04:32:25;;;;;;;1.73;0.85;;;16.80;88.60;;;;;;4976936;28;20476;-60
2021/09/20 04:34:51;;;;;;;1.40;0.60;;;16.90;88.50;;;;;;4959360;28;20038;-60
2021/09/20 04:37:17;;;;;;;5.85;0.90;;;16.90;89.20;;;;;;4978025;28;20030;-60
2021/09/20 04:39:44;;;;;;;1.00;0.80;;;16.90;88.10;;;;;;4963871;28;20026;-60
2021/09/20 04:42:10;;;;;;;3.58;0.77;;;16.90;88.60;;;;;;4976933;28;20499;-60
2021/09/20 04:44:35;;;;;;;2.55;0.80;;;16.90;88.50;;;;;;4958590;28;20039;-60
2021/09/20 04:47:01;;;;;;;1.80;0.88;;;16.90;87.50;;;;;;4976863;28;20110;-60
2021/09/20 04:49:26;;;;;;;2.72;0.73;;;16.90;88.30;;;;;;4974936;28;20509;-60
2021/09/20 04:51:52;;;;;;;4.25;0.95;;;16.80;88.40;;;;;;4977389;28;20415;-60
2021/09/20 04:54:18;;;;;;;0.65;0.40;;;16.70;89.30;;;;;;4975435;28;20081;-60
2021/09/20 04:56:43;;;;;;;1.80;0.70;;;16.70;86.90;;;;;;4976832;28;20035;-60
2021/09/20 04:59:09;;;;;;;1.83;0.77;;;16.80;89.70;;;;;;4976353;28;20026;-60
2021/09/20 05:01:35;;;;;;;1.05;0.50;;;16.70;88.10;;;;;;4959557;28;20027;-61
2021/09/20 05:04:00;;;;;;;1.27;0.57;;;16.70;88.70;;;;;;4976176;28;20038;-60
2021/09/20 05:06:26;;;;;;;2.20;0.30;;;16.70;88.30;;;;;;4976583;28;20054;-60
2021/09/20 05:08:52;;;;;;;0.75;0.55;;;16.70;86.90;;;;;;4975512;28;20041;-60
2021/09/20 05:11:17;;;;;;;1.27;0.60;;;16.70;86.70;;;;;;4958706;28;20049;-60
2021/09/20 05:13:43;;;;;;;1.13;0.60;;;16.70;86.30;;;;;;4958245;28;20077;-60
2021/09/20 05:16:08;;;;;;;1.35;0.50;;;16.60;86.90;;;;;;4958718;28;20477;-60
2021/09/20 05:18:34;;;;;;;2.88;0.73;;;16.70;85.80;;;;;;4963388;28;20047;-60
2021/09/20 05:21:00;;;;;;;1.38;0.63;;;16.70;86.00;;;;;;4956944;29;20082;-60
2021/09/20 05:23:25;;;;;;;1.98;0.50;;;16.70;85.90;;;;;;4952675;29;20035;-60
2021/09/20 05:25:51;;;;;;;3.22;0.43;;;16.70;86.10;;;;;;4956904;29;20035;-61
2021/09/20 05:28:17;;;;;;;0.68;0.50;;;16.70;85.60;;;;;;4956406;28;20027;-60
2021/09/20 05:30:42;;;;;;;1.63;0.60;;;16.70;85.80;;;;;;4956650;29;20110;-60
2021/09/20 05:33:08;;;;;;;3.40;0.55;;;16.70;85.80;;;;;;4955794;29;20043;-60
2021/09/20 05:35:33;;;;;;;2.10;0.65;;;16.70;86.60;;;;;;4956814;29;20027;-61
2021/09/20 05:37:59;;;;;;;5.43;0.75;;;16.70;86.90;;;;;;4956089;28;20038;-60
2021/09/20 05:40:25;;;;;;;2.75;0.63;;;16.70;86.70;;;;;;4956728;29;20035;-60
2021/09/20 05:42:56;;;;;;;1.30;0.55;;;16.70;84.60;;;;;;4938393;28;20126;-60
2021/09/20 05:45:29;;;;;;;1.38;0.47;;;16.70;85.20;;;;;;4955651;28;20043;-60
2021/09/20 05:47:55;;;;;;;3.40;0.68;;;16.70;83.10;;;;;;4954147;28;20035;-60
2021/09/20 05:50:21;;;;;;;0.63;0.50;;;16.70;83.10;;;;;;4955194;28;20027;-60
2021/09/20 05:52:48;;;;;;;1.95;0.40;;;16.80;85.10;;;;;;4954805;28;20050;-60
2021/09/20 05:55:15;;;;;;;0.93;0.50;;;16.80;84.30;;;;;;4936065;29;20032;-60
2021/09/20 05:57:41;;;;;;;0.68;0.40;;;16.80;82.60;;;;;;4937583;29;20032;-60
2021/09/20 06:00:08;;;;;;;1.38;0.50;;;16.70;81.80;;;;;;4955370;28;20027;-60
2021/09/20 06:02:33;;;;;;;1.80;0.50;;;16.80;83.10;;;;;;4938898;29;20027;-60
2021/09/20 06:04:59;;;;;;;2.67;0.73;;;16.80;83.00;;;;;;4955488;28;20477;-60
2021/09/20 06:07:24;;;;;;;3.30;0.95;;;16.80;84.20;;;;;;4954365;28;20043;-60
2021/09/20 06:09:50;;;;;;;3.80;1.00;;;16.70;83.30;;;;;;4955704;28;20042;-61
2021/09/20 06:12:17;;;;;;;1.98;0.70;;;16.80;83.60;;;;;;4955914;29;20118;-60
2021/09/20 06:14:43;;;;;;;2.15;0.90;;;16.90;84.30;;;;;;4955232;28;20023;-59
2021/09/20 06:17:08;;;;;;;3.78;0.95;;;16.90;84.00;;;;;;4943836;28;20111;-59
2021/09/20 06:19:34;;;;;;;2.15;1.02;;;16.90;83.70;;;;;;4968996;28;20038;-60
2021/09/20 06:21:59;;;;;;;3.70;1.45;;;16.90;84.20;;;;;;4974545;28;20035;-60
2021/09/20 06:24:25;;;;;;;4.00;1.30;;;16.90;85.00;;;;;;4974606;28;20109;-60
2021/09/20 06:26:51;;;;;;;3.95;1.45;;;16.90;85.60;;;;;;4973626;28;20069;-60
2021/09/20 06:29:16;;;;;;;3.13;0.88;;;16.90;87.10;;;;;;4974543;28;20035;-60
2021/09/20 06:31:42;;;;;;;3.50;1.13;;;16.90;85.40;;;;;;4975127;28;20027;-60
2021/09/20 06:34:07;;;;;;;2.17;1.10;;;16.90;85.10;;;;;;4957088;28;20038;-60
2021/09/20 06:36:33;;;;;;;3.60;0.93;;;16.90;86.20;;;;;;4974947;28;20022;-60
2021/09/20 06:38:59;;;;;;;3.53;1.40;;;16.90;86.90;;;;;;4973925;28;20038;-61
2021/09/20 06:41:25;;;;;;;3.80;1.50;;;16.90;86.00;;;;;;4974481;28;20073;-60
2021/09/20 06:43:51;;;;;;;16.35;3.08;;;17.00;86.80;;;;;;4955905;28;20369;-61
2021/09/20 06:46:17;;;;;;;7.68;1.95;;;17.00;87.70;;;;;;4957250;28;20100;-60
2021/09/20 06:48:42;;;;;;;7.30;2.00;;;17.10;87.50;;;;;;4974409;28;20077;-60
2021/09/20 06:51:08;;;;;;;5.43;2.13;;;17.10;86.90;;;;;;4974722;28;20449;-61
2021/09/20 06:53:34;;;;;;;4.28;1.83;;;17.10;87.20;;;;;;4973234;28;20043;-61
2021/09/20 06:56:00;;;;;;;3.53;1.25;;;17.20;86.90;;;;;;4974154;28;20413;-61
2021/09/20 06:58:26;;;;;;;3.95;1.90;;;17.20;86.90;;;;;;4973819;28;20045;-61
2021/09/20 07:00:51;;;;;;;4.63;1.75;;;17.20;87.40;;;;;;4970311;28;20578;-61
2021/09/20 07:03:17;;;;;;;6.78;1.77;;;17.30;87.40;;;;;;4956106;28;20066;-60
2021/09/20 07:05:42;;;;;;;3.30;1.30;;;17.40;86.40;;;;;;4973820;28;20113;-60
2021/09/20 07:08:08;;;;;;;5.43;1.70;;;17.50;86.30;;;;;;4956289;28;20030;-60
2021/09/20 07:10:34;;;;;;;2.92;1.27;;;17.50;85.40;;;;;;4972580;28;20051;-60
2021/09/20 07:13:00;;;;;;;4.38;1.40;;;17.50;83.40;;;;;;4955531;28;20488;-60
2021/09/20 07:15:26;;;;;;;3.90;1.48;;;17.60;84.70;;;;;;4968774;28;20055;-60
2021/09/20 07:17:51;;;;;;;5.32;1.67;;;17.60;84.90;;;;;;4948674;29;20562;-60
2021/09/20 07:20:17;;;;;;;4.57;1.52;;;17.70;79.10;;;;;;4951707;28;20027;-60
2021/09/20 07:22:44;;;;;;;4.00;1.33;;;17.70;82.40;;;;;;4954795;29;20023;-60
2021/09/20 07:25:11;;;;;;;1.73;0.77;;;17.60;76.70;;;;;;4954254;28;20035;-60
2021/09/20 07:27:37;;;;;;;2.67;1.20;;;17.60;79.60;;;;;;4954657;29;20031;-60
2021/09/20 07:30:05;;;;;;;4.65;1.20;;;17.80;79.70;;;;;;4954144;28;20126;-60
2021/09/20 07:32:31;;;;;;;2.95;1.33;;;17.80;79.90;;;;;;4954525;28;20039;-60
2021/09/20 07:34:56;;;;;;;6.30;1.45;;;17.80;79.10;;;;;;4954256;28;20082;-60
2021/09/20 07:37:22;;;;;;;3.28;1.40;;;17.90;79.40;;;;;;4954524;29;20572;-60
2021/09/20 07:39:47;;;;;;;3.75;1.42;;;17.90;80.60;;;;;;4939844;28;20024;-60
2021/09/20 07:42:13;;;;;;;4.13;1.17;;;17.90;78.70;;;;;;4935676;29;20028;-60
2021/09/20 07:44:39;;;;;;;3.63;2.75;;;17.90;78.10;;;;;;4945288;28;20039;-60
2021/09/20 07:47:05;;;;;;;3.38;1.60;;;18.00;78.10;;;;;;4954692;29;20058;-60
2021/09/20 07:49:30;;;;;;;1.98;0.77;;;18.00;75.90;;;;;;4936486;29;20027;-60
2021/09/20 07:51:56;;;;;;;4.18;1.23;;;18.00;77.90;;;;;;4954299;28;20401;-60
2021/09/20 07:54:21;;;;;;;3.97;1.33;;;18.00;78.80;;;;;;4954054;28;20034;-60
2021/09/20 07:56:47;;;;;;;4.85;1.20;;;18.10;76.20;;;;;;4953773;28;20036;-60
2021/09/20 07:59:12;;;;;;;2.80;1.13;;;18.10;75.80;;;;;;4953623;28;20034;-60
2021/09/20 08:01:38;;;;;;;2.53;1.10;;;18.10;76.00;;;;;;4954333;29;20484;-60
2021/09/20 08:04:04;;;;;;;2.80;1.25;;;18.20;78.00;;;;;;4953517;28;20078;-60
2021/09/20 08:06:30;;;;;;;6.32;1.38;;;18.20;76.30;;;;;;4954215;29;20107;-60
2021/09/20 08:08:55;;;;;;;3.42;1.25;;;18.20;78.10;;;;;;4953134;28;20170;-60
2021/09/20 08:11:21;;;;;;;3.78;1.50;;;18.20;77.40;;;;;;4954250;29;20106;-60
2021/09/20 08:13:47;;;;;;;1.88;1.02;;;18.30;78.00;;;;;;4953938;28;20039;-60
2021/09/20 08:16:13;;;;;;;1.35;1.00;;;18.30;77.30;;;;;;4954346;29;20070;-60
2021/09/20 08:18:39;;;;;;;1.52;0.90;;;18.30;76.70;;;;;;4948249;28;20050;-60
2021/09/20 08:21:06;;;;;;;2.25;1.10;;;18.40;74.80;;;;;;4973016;28;20093;-60
2021/09/20 08:23:33;;;;;;;2.70;1.25;;;18.40;71.50;;;;;;4973494;28;20054;-60
2021/09/20 08:25:59;;;;;;;3.03;0.95;;;18.50;74.50;;;;;;4972975;28;20030;-60
2021/09/20 08:28:24;;;;;;;4.90;1.15;;;18.50;73.60;;;;;;4973466;28;20503;-60
2021/09/20 08:30:50;;;;;;;5.50;1.40;;;18.60;74.60;;;;;;4972637;28;20472;-60
2021/09/20 08:33:16;;;;;;;2.65;0.90;;;18.60;73.50;;;;;;4956044;28;20111;-60
2021/09/20 08:35:41;;;;;;;2.78;0.70;;;18.70;72.60;;;;;;4973126;28;20491;-60
2021/09/20 08:38:07;;;;;;;1.85;0.73;;;18.80;71.40;;;;;;4968762;28;20033;-60
2021/09/20 08:40:34;;;;;;;2.85;0.90;;;18.80;70.00;;;;;;4972709;28;20488;-61
2021/09/20 08:43:00;;;;;;;2.03;0.65;;;18.80;70.10;;;;;;4973360;28;20030;-61
2021/09/20 08:45:26;;;;;;;3.83;1.20;;;18.90;70.70;;;;;;4974251;28;20033;-60
2021/09/20 08:47:54;;;;;;;6.13;1.50;;;19.00;68.90;;;;;;4976754;28;20066;-60
2021/09/20 08:50:29;;;;;;;3.15;0.73;;;19.10;68.20;;;;;;4943261;28;20507;-60
2021/09/20 08:52:57;;;;;;;5.28;1.10;;;19.10;65.30;;;;;;4976197;28;20481;-60
2021/09/20 08:55:23;;;;;;;4.25;1.20;;;19.10;68.10;;;;;;4976298;28;20031;-60
2021/09/20 08:57:48;;;;;;;1.67;0.60;;;19.20;68.40;;;;;;4976953;28;20034;-60
2021/09/20 09:00:14;;;;;;;3.05;0.95;;;19.20;67.20;;;;;;4976234;28;20029;-60
2021/09/20 09:02:40;;;;;;;3.65;0.73;;;19.30;67.20;;;;;;4976806;28;20069;-60
2021/09/20 09:05:18;;;;;;;1.45;0.60;;;19.40;66.30;;;;;;4976059;28;20026;-61
2021/09/20 09:07:49;;;;;;;1.20;0.50;;;19.40;63.40;;;;;;4975406;28;20027;-61
2021/09/20 09:10:16;;;;;;;1.77;0.93;;;19.40;64.20;;;;;;4976288;28;20026;-61
2021/09/20 09:12:50;;;;;;;2.42;0.80;;;19.50;64.00;;;;;;4976363;28;20050;-61
2021/09/20 09:15:17;;;;;;;1.77;0.50;;;19.60;63.20;;;;;;4976129;28;20045;-61
2021/09/20 09:17:45;;;;;;;1.35;0.63;;;19.80;63.50;;;;;;4958721;28;20125;-60
2021/09/20 09:20:23;;;;;;;3.13;0.88;;;19.90;60.60;;;;;;4975890;28;20247;-61
2021/09/20 09:22:55;;;;;;;6.63;0.98;;;20.10;58.00;;;;;;4975785;28;20039;-60
2021/09/20 09:25:22;;;;;;;1.33;1.10;;;20.30;57.90;;;;;;4975691;28;20027;-61
2021/09/20 09:27:51;;;;;;;1.52;0.75;;;20.50;57.70;;;;;;4976496;28;20046;-61
2021/09/20 09:30:22;;;;;;;1.30;0.55;;;20.60;57.40;;;;;;4975533;28;20181;-61
2021/09/20 09:33:01;;;;;;;4.93;1.13;;;20.80;56.50;;;;;;4975989;28;20124;-60
2021/09/20 09:35:29;;;;;;;0.90;0.70;;;;;;;;;;4955600;28;20023;-61
2021/09/20 09:38:00;;;;;;;4.90;0.70;;;;;;;;;;4975963;28;20037;-61
2021/09/20 09:40:25;;;;;;;1.55;0.63;;;21.30;70.60;;;;;;4975176;28;20027;-61
2021/09/20 09:42:58;;;;;;;3.75;0.88;;;21.40;63.70;;;;;;4976283;28;20051;-61
2021/09/20 09:45:31;;;;;;;4.95;0.88;;;21.50;52.60;;;;;;4957965;28;20037;-61
2021/09/20 09:48:13;;;;;;;1.45;0.70;;;21.50;51.70;;;;;;4975213;28;20030;-67
2021/09/20 09:50:42;;;;;;;3.70;1.50;;;21.70;50.30;;;;;;4974851;28;20071;-71
2021/09/20 09:53:20;;;;;;;0.88;0.82;;;21.80;52.20;;;;;;4974961;28;20397;-67
2021/09/20 09:55:45;;;;;;;1.60;0.70;;;22.00;52.30;;;;;;4974472;28;20058;-69
2021/09/20 09:58:12;;;;;;;1.40;1.00;;;22.10;51.20;;;;;;4974812;28;20027;-69
2021/09/20 10:00:38;;;;;;;3.72;1.02;;;22.20;49.20;;;;;;4974542;28;20046;-64
2021/09/20 10:03:04;;;;;;;3.58;1.40;;;22.20;50.30;;;;;;4974996;28;20073;-65
2021/09/20 10:05:30;;;;;;;2.67;0.90;;;22.20;49.10;;;;;;4973569;28;20062;-64
2021/09/20 10:07:55;;;;;;;3.28;1.15;;;22.40;51.50;;;;;;4975407;28;20440;-64
2021/09/20 10:10:25;;;;;;;1.88;1.17;;;22.50;51.90;;;;;;4974865;28;20034;-64
2021/09/20 10:12:53;;;;;;;1.58;0.85;;;22.60;56.10;;;;;;4975394;28;20042;-64
2021/09/20 10:15:20;;;;;;;2.67;1.25;;;;;;;;;;4974323;28;20027;-64
2021/09/20 10:17:46;;;;;;;1.70;1.42;;;22.30;83.30;;;;;;4975168;28;20062;-64
2021/09/20 10:20:23;;;;;;;1.48;1.20;;;22.80;55.20;;;;;;4974772;28;20035;-68
2021/09/20 10:22:49;;;;;;;0.98;0.85;;;22.90;51.40;;;;;;4975270;28;20038;-68
2021/09/20 10:25:17;;;;;;;4.13;0.80;;;23.00;54.70;;;;;;4974381;28;20476;-69
2021/09/20 10:27:45;;;;;;;2.45;0.90;;;23.10;53.50;;;;;;4975122;28;20029;-66
2021/09/20 10:30:15;;;;;;;7.82;2.88;;;23.00;54.70;;;;;;4974454;28;20027;-66
2021/09/20 10:32:44;;;;;;;26.50;11.35;;;23.00;53.30;;;;;;4975092;28;20057;-64
2021/09/20 10:35:22;;;;;;;0.88;0.70;;;23.00;54.10;;;;;;4973440;28;20026;-61
2021/09/20 10:37:48;;;;;;;6.45;2.60;;;23.10;52.30;;;;;;4972923;28;20031;-61
2021/09/20 10:40:14;;;;;;;4.07;1.70;;;;;;;;;;4971921;28;20022;-61
2021/09/20 10:42:43;;;;;;;2.80;0.75;;;23.40;78.10;;;;;;4973137;28;20026;-61
2021/09/20 10:45:37;;;;;;;2.90;1.88;;;23.40;56.50;;;;;;4973258;28;20035;-61
2021/09/20 10:48:14;;;;;;;5.88;1.95;;;23.50;53.60;;;;;;4974844;28;20038;-61
2021/09/20 10:50:49;;;;;;;1.33;1.20;;;23.50;55.90;;;;;;4973743;28;20038;-62
2021/09/20 10:53:23;;;;;;;1.30;1.17;;;23.50;52.70;;;;;;4974343;28;20057;-62
2021/09/20 10:56:04;;;;;;;1.85;1.23;;;23.60;54.30;;;;;;4974090;28;20023;-61
2021/09/20 10:58:51;;;;;;;2.72;1.45;;;23.70;46.00;;;;;;4974484;28;20158;-61
2021/09/20 11:01:19;;;;;;;1.80;1.13;;;23.80;47.10;;;;;;4960417;28;20037;-61
2021/09/20 11:03:59;;;;;;;3.63;1.50;;;23.90;51.70;;;;;;4973399;28;20034;-62
2021/09/20 11:06:35;;;;;;;3.85;1.80;;;24.00;53.50;;;;;;4956460;28;20045;-62
2021/09/20 11:09:03;;;;;;;1.88;1.33;;;24.10;57.10;;;;;;4957153;28;20026;-62
2021/09/20 11:11:44;;;;;;;1.05;0.93;;;24.20;58.90;;;;;;4973180;28;20031;-61
2021/09/20 11:14:13;;;;;;;1.27;1.00;;;24.30;49.90;;;;;;4974027;28;20034;-61
2021/09/20 11:16:51;;;;;;;2.50;1.20;;;24.40;44.60;;;;;;4973420;28;20578;-62
2021/09/20 11:19:40;;;;;;;3.83;1.88;;;24.40;40.00;;;;;;4956763;28;20057;-62
2021/09/20 11:22:06;;;;;;;2.70;1.85;;;24.60;42.00;;;;;;4945630;29;20508;-62
2021/09/20 11:24:55;;;;;;;3.95;2.53;;;24.40;40.80;;;;;;4954077;28;20039;-62
2021/09/20 11:27:37;;;;;;;1.77;1.60;;;24.70;41.80;;;;;;4937484;29;20082;-62
2021/09/20 11:30:12;;;;;;;1.88;1.77;;;24.80;41.40;;;;;;4954085;28;20035;-62
2021/09/20 11:32:54;;;;;;;2.65;1.75;;;24.90;43.60;;;;;;4953025;28;20041;-62
2021/09/20 11:35:24;;;;;;;3.38;1.23;;;25.00;39.00;;;;;;4954514;29;20102;-62
2021/09/20 11:37:51;;;;;;;2.28;1.65;;;24.90;39.40;;;;;;4954143;28;20114;-63
2021/09/20 11:40:19;;;;;;;1.17;1.13;;;25.00;39.50;;;;;;4954826;29;20031;-62
2021/09/20 11:42:51;;;;;;;3.13;1.88;;;24.80;39.80;;;;;;4954033;28;20042;-63
2021/09/20 11:45:21;;;;;;;3.22;1.55;;;24.90;38.70;;;;;;4954412;29;20113;-63
2021/09/20 11:47:57;;;;;;;2.40;1.45;;;25.00;39.60;;;;;;4953860;28;20037;-62
2021/09/20 11:50:32;;;;;;;3.25;1.88;;;25.00;37.00;;;;;;4954840;29;20053;-63
2021/09/20 11:53:01;;;;;;;1.23;1.13;;;24.90;39.90;;;;;;4951262;28;20419;-62
2021/09/20 11:55:35;;;;;;;1.58;1.15;;;24.90;39.60;;;;;;4954325;29;20074;-62
2021/09/20 11:58:03;;;;;;;3.10;1.10;;;24.90;38.40;;;;;;4950491;28;20039;-63
2021/09/20 12:00:31;;;;;;;3.53;1.33;;;25.20;39.00;;;;;;4952875;28;20362;-63
2021/09/20 12:02:59;;;;;;;1.30;0.80;;;25.00;38.40;;;;;;4954313;29;20161;-62
2021/09/20 12:05:26;;;;;;;3.22;1.17;;;24.80;38.30;;;;;;4953585;28;20055;-62
2021/09/20 12:08:21;;;;;;;3.10;1.00;;;24.60;38.50;;;;;;4954459;29;20028;-62
2021/09/20 12:11:07;;;;;;;2.92;1.23;;;24.60;38.10;;;;;;4948391;28;20554;-62
2021/09/20 12:13:35;;;;;;;1.00;1.00;;;24.60;39.20;;;;;;4953469;28;20065;-63
2021/09/20 12:16:07;;;;;;;4.32;1.40;;;24.70;39.10;;;;;;4953417;28;20110;-63
2021/09/20 12:18:33;;;;;;;1.15;1.00;;;25.20;38.30;;;;;;4965230;28;20058;-63
2021/09/20 12:21:05;;;;;;;2.15;1.15;;;25.40;37.70;;;;;;4975663;28;20037;-63
2021/09/20 12:23:36;;;;;;;2.88;1.40;;;25.60;37.30;;;;;;4959359;28;20026;-63
2021/09/20 12:26:09;;;;;;;3.72;1.77;;;25.10;38.00;;;;;;4972796;28;20044;-62
2021/09/20 12:28:37;;;;;;;3.40;1.65;;;25.00;38.60;;;;;;4959736;28;20352;-63
2021/09/20 12:31:16;;;;;;;3.58;1.48;;;24.80;39.50;;;;;;4976278;28;20369;-63
2021/09/20 12:34:01;;;;;;;4.45;1.83;;;24.80;37.80;;;;;;4977430;28;20228;-63
2021/09/20 12:36:29;;;;;;;3.53;1.45;;;24.90;38.30;;;;;;4975113;28;20444;-63
2021/09/20 12:39:13;;;;;;;13.15;2.08;;;24.60;37.00;;;;;;4974908;28;20027;-63
2021/09/20 12:42:04;;;;;;;3.78;1.50;;;24.50;37.60;;;;;;4976767;28;20035;-62
2021/09/20 12:44:44;;;;;;;3.70;1.20;;;24.50;37.50;;;;;;4976466;28;20062;-63
2021/09/20 12:47:26;;;;;;;2.38;1.20;;;24.50;37.50;;;;;;4976339;28;20420;-62
2021/09/20 12:50:01;;;;;;;1.95;1.00;;;24.50;36.80;;;;;;4976537;28;20027;-62
2021/09/20 12:52:29;;;;;;;1.73;1.20;;;24.60;37.30;;;;;;4977015;28;20166;-63